sensor_id;sensor_type;location;lat;lon;timestamp;P1;durP1;ratioP1;P2;durP2;ratioP2
7158;SDS011;63175;52.374;13.132;2023-05-07T00:00:39;7.13;;;5.40;;
7158;SDS011;63175;52.374;13.132;2023-05-07T00:03:07;7.10;;;5.90;;
7158;SDS011;63175;52.374;13.132;2023-05-07T00:05:35;6.00;;;5.50;;
7158;SDS011;63175;52.374;13.132;2023-05-07T00:08:03;6.40;;;5.90;;
7158;SDS011;63175;52.374;13.132;2023-05-07T00:10:30;6.27;;;5.77;;
7158;SDS011;63175;52.374;13.132;2023-05-07T00:12:57;5.10;;;4.80;;
7158;SDS011;63175;52.374;13.132;2023-05-07T00:15:23;5.70;;;5.20;;
7158;SDS011;63175;52.374;13.132;2023-05-07T00:17:50;5.53;;;5.03;;
7158;SDS011;63175;52.374;13.132;2023-05-07T00:20:17;6.00;;;5.40;;
7158;SDS011;63175;52.374;13.132;2023-05-07T00:22:45;6.50;;;5.90;;
7158;SDS011;63175;52.374;13.132;2023-05-07T00:25:12;5.80;;;5.30;;
7158;SDS011;63175;52.374;13.132;2023-05-07T00:27:39;5.70;;;5.20;;
7158;SDS011;63175;52.374;13.132;2023-05-07T00:30:06;4.70;;;4.40;;
7158;SDS011;63175;52.374;13.132;2023-05-07T00:32:33;5.60;;;5.07;;
7158;SDS011;63175;52.374;13.132;2023-05-07T00:35:01;6.03;;;5.53;;
7158;SDS011;63175;52.374;13.132;2023-05-07T00:37:28;5.20;;;4.70;;
7158;SDS011;63175;52.374;13.132;2023-05-07T00:39:56;5.83;;;5.33;;
7158;SDS011;63175;52.374;13.132;2023-05-07T00:42:23;5.40;;;4.90;;
7158;SDS011;63175;52.374;13.132;2023-05-07T00:44:50;5.80;;;4.97;;
7158;SDS011;63175;52.374;13.132;2023-05-07T00:47:17;5.20;;;4.70;;
7158;SDS011;63175;52.374;13.132;2023-05-07T00:49:44;5.67;;;5.20;;
7158;SDS011;63175;52.374;13.132;2023-05-07T00:52:13;6.33;;;5.70;;
7158;SDS011;63175;52.374;13.132;2023-05-07T00:54:41;5.30;;;4.80;;
7158;SDS011;63175;52.374;13.132;2023-05-07T00:57:10;7.53;;;6.07;;
7158;SDS011;63175;52.374;13.132;2023-05-07T00:59:37;5.47;;;5.00;;
7158;SDS011;63175;52.374;13.132;2023-05-07T01:02:05;6.50;;;5.97;;
7158;SDS011;63175;52.374;13.132;2023-05-07T01:04:32;5.83;;;5.33;;
7158;SDS011;63175;52.374;13.132;2023-05-07T01:07:00;6.50;;;5.90;;
7158;SDS011;63175;52.374;13.132;2023-05-07T01:09:27;4.53;;;4.13;;
7158;SDS011;63175;52.374;13.132;2023-05-07T01:11:55;5.17;;;4.67;;
7158;SDS011;63175;52.374;13.132;2023-05-07T01:14:24;5.87;;;5.37;;
7158;SDS011;63175;52.374;13.132;2023-05-07T01:16:52;5.60;;;5.10;;
7158;SDS011;63175;52.374;13.132;2023-05-07T01:19:20;5.07;;;4.67;;
7158;SDS011;63175;52.374;13.132;2023-05-07T01:21:47;5.70;;;5.20;;
7158;SDS011;63175;52.374;13.132;2023-05-07T01:24:16;5.83;;;5.33;;
7158;SDS011;63175;52.374;13.132;2023-05-07T01:26:44;6.20;;;5.70;;
7158;SDS011;63175;52.374;13.132;2023-05-07T01:29:11;5.40;;;5.00;;
7158;SDS011;63175;52.374;13.132;2023-05-07T01:31:38;7.43;;;5.77;;
7158;SDS011;63175;52.374;13.132;2023-05-07T01:34:06;6.00;;;5.50;;
7158;SDS011;63175;52.374;13.132;2023-05-07T01:36:36;6.03;;;5.43;;
7158;SDS011;63175;52.374;13.132;2023-05-07T01:39:05;5.33;;;4.97;;
7158;SDS011;63175;52.374;13.132;2023-05-07T01:41:34;5.70;;;5.07;;
7158;SDS011;63175;52.374;13.132;2023-05-07T01:44:01;6.70;;;5.77;;
7158;SDS011;63175;52.374;13.132;2023-05-07T01:46:29;5.90;;;5.40;;
7158;SDS011;63175;52.374;13.132;2023-05-07T01:48:57;5.40;;;4.90;;
7158;SDS011;63175;52.374;13.132;2023-05-07T01:51:24;5.47;;;5.07;;
7158;SDS011;63175;52.374;13.132;2023-05-07T01:53:52;5.17;;;4.73;;
7158;SDS011;63175;52.374;13.132;2023-05-07T01:56:19;5.20;;;4.80;;
7158;SDS011;63175;52.374;13.132;2023-05-07T01:58:47;5.23;;;4.83;;
7158;SDS011;63175;52.374;13.132;2023-05-07T02:01:16;5.93;;;5.43;;
7158;SDS011;63175;52.374;13.132;2023-05-07T02:03:44;5.00;;;4.53;;
7158;SDS011;63175;52.374;13.132;2023-05-07T02:06:10;4.50;;;4.20;;
7158;SDS011;63175;52.374;13.132;2023-05-07T02:08:37;4.80;;;4.40;;
7158;SDS011;63175;52.374;13.132;2023-05-07T02:11:04;5.43;;;4.93;;
7158;SDS011;63175;52.374;13.132;2023-05-07T02:13:32;4.50;;;4.07;;
7158;SDS011;63175;52.374;13.132;2023-05-07T02:16:00;5.10;;;4.70;;
7158;SDS011;63175;52.374;13.132;2023-05-07T02:18:27;3.90;;;3.60;;
7158;SDS011;63175;52.374;13.132;2023-05-07T02:20:54;5.97;;;4.33;;
7158;SDS011;63175;52.374;13.132;2023-05-07T02:23:21;4.80;;;4.27;;
7158;SDS011;63175;52.374;13.132;2023-05-07T02:25:48;4.97;;;4.57;;
7158;SDS011;63175;52.374;13.132;2023-05-07T02:28:15;4.23;;;3.90;;
7158;SDS011;63175;52.374;13.132;2023-05-07T02:30:42;4.60;;;4.30;;
7158;SDS011;63175;52.374;13.132;2023-05-07T02:33:10;4.20;;;3.87;;
7158;SDS011;63175;52.374;13.132;2023-05-07T02:35:37;4.03;;;3.73;;
7158;SDS011;63175;52.374;13.132;2023-05-07T02:38:04;5.30;;;4.43;;
7158;SDS011;63175;52.374;13.132;2023-05-07T02:40:31;4.47;;;4.17;;
7158;SDS011;63175;52.374;13.132;2023-05-07T02:43:03;4.07;;;3.77;;
7158;SDS011;63175;52.374;13.132;2023-05-07T02:45:30;4.33;;;4.03;;
7158;SDS011;63175;52.374;13.132;2023-05-07T02:47:57;4.40;;;4.10;;
7158;SDS011;63175;52.374;13.132;2023-05-07T02:50:26;3.97;;;3.67;;
7158;SDS011;63175;52.374;13.132;2023-05-07T03:06:23;4.63;;;4.27;;
7158;SDS011;63175;52.374;13.132;2023-05-07T03:08:49;5.40;;;4.90;;
7158;SDS011;63175;52.374;13.132;2023-05-07T03:11:16;5.33;;;4.83;;
7158;SDS011;63175;52.374;13.132;2023-05-07T03:13:43;5.30;;;4.80;;
7158;SDS011;63175;52.374;13.132;2023-05-07T03:16:10;6.63;;;5.93;;
7158;SDS011;63175;52.374;13.132;2023-05-07T03:18:37;5.37;;;4.83;;
7158;SDS011;63175;52.374;13.132;2023-05-07T03:21:04;5.53;;;4.87;;
7158;SDS011;63175;52.374;13.132;2023-05-07T03:23:32;5.30;;;4.90;;
7158;SDS011;63175;52.374;13.132;2023-05-07T03:25:59;5.07;;;4.67;;
7158;SDS011;63175;52.374;13.132;2023-05-07T03:28:26;4.20;;;3.80;;
7158;SDS011;63175;52.374;13.132;2023-05-07T03:30:52;4.60;;;4.17;;
7158;SDS011;63175;52.374;13.132;2023-05-07T03:33:19;4.83;;;4.43;;
7158;SDS011;63175;52.374;13.132;2023-05-07T03:35:46;4.30;;;4.00;;
7158;SDS011;63175;52.374;13.132;2023-05-07T03:38:13;4.87;;;4.33;;
7158;SDS011;63175;52.374;13.132;2023-05-07T03:40:41;5.13;;;4.63;;
7158;SDS011;63175;52.374;13.132;2023-05-07T03:43:08;4.70;;;4.30;;
7158;SDS011;63175;52.374;13.132;2023-05-07T03:45:35;5.07;;;4.67;;
7158;SDS011;63175;52.374;13.132;2023-05-07T03:48:02;6.40;;;5.30;;
7158;SDS011;63175;52.374;13.132;2023-05-07T03:50:29;5.23;;;4.83;;
7158;SDS011;63175;52.374;13.132;2023-05-07T03:52:56;5.53;;;4.67;;
7158;SDS011;63175;52.374;13.132;2023-05-07T03:55:23;6.03;;;5.33;;
7158;SDS011;63175;52.374;13.132;2023-05-07T03:57:51;6.00;;;5.40;;
7158;SDS011;63175;52.374;13.132;2023-05-07T04:00:18;6.60;;;5.10;;
7158;SDS011;63175;52.374;13.132;2023-05-07T04:02:46;5.90;;;5.33;;
7158;SDS011;63175;52.374;13.132;2023-05-07T04:05:13;7.53;;;4.83;;
7158;SDS011;63175;52.374;13.132;2023-05-07T04:07:40;5.57;;;4.93;;
7158;SDS011;63175;52.374;13.132;2023-05-07T04:10:07;5.73;;;5.20;;
7158;SDS011;63175;52.374;13.132;2023-05-07T04:12:35;4.83;;;4.47;;
7158;SDS011;63175;52.374;13.132;2023-05-07T04:15:03;5.30;;;4.80;;
7158;SDS011;63175;52.374;13.132;2023-05-07T04:17:30;4.77;;;4.37;;
7158;SDS011;63175;52.374;13.132;2023-05-07T04:19:57;4.77;;;4.27;;
7158;SDS011;63175;52.374;13.132;2023-05-07T04:22:24;4.93;;;4.60;;
7158;SDS011;63175;52.374;13.132;2023-05-07T04:24:51;7.70;;;5.70;;
7158;SDS011;63175;52.374;13.132;2023-05-07T04:27:18;6.10;;;5.60;;
7158;SDS011;63175;52.374;13.132;2023-05-07T04:29:45;6.63;;;5.47;;
7158;SDS011;63175;52.374;13.132;2023-05-07T04:32:13;7.10;;;6.40;;
7158;SDS011;63175;52.374;13.132;2023-05-07T04:34:40;6.53;;;5.50;;
7158;SDS011;63175;52.374;13.132;2023-05-07T04:37:07;5.20;;;4.63;;
7158;SDS011;63175;52.374;13.132;2023-05-07T04:39:34;5.40;;;4.90;;
7158;SDS011;63175;52.374;13.132;2023-05-07T04:42:01;5.80;;;5.00;;
7158;SDS011;63175;52.374;13.132;2023-05-07T04:44:28;6.47;;;5.70;;
7158;SDS011;63175;52.374;13.132;2023-05-07T04:46:56;5.90;;;5.20;;
7158;SDS011;63175;52.374;13.132;2023-05-07T04:49:24;7.73;;;6.00;;
7158;SDS011;63175;52.374;13.132;2023-05-07T04:51:51;6.40;;;5.30;;
7158;SDS011;63175;52.374;13.132;2023-05-07T04:54:18;5.60;;;5.00;;
7158;SDS011;63175;52.374;13.132;2023-05-07T04:56:44;5.53;;;5.03;;
7158;SDS011;63175;52.374;13.132;2023-05-07T04:59:11;5.73;;;5.17;;
7158;SDS011;63175;52.374;13.132;2023-05-07T05:01:38;5.97;;;5.47;;
7158;SDS011;63175;52.374;13.132;2023-05-07T05:04:05;5.80;;;5.30;;
7158;SDS011;63175;52.374;13.132;2023-05-07T05:06:33;4.80;;;4.40;;
7158;SDS011;63175;52.374;13.132;2023-05-07T05:09:00;5.07;;;4.60;;
7158;SDS011;63175;52.374;13.132;2023-05-07T05:11:27;5.57;;;4.73;;
7158;SDS011;63175;52.374;13.132;2023-05-07T05:13:54;5.93;;;4.20;;
7158;SDS011;63175;52.374;13.132;2023-05-07T05:16:21;6.00;;;5.50;;
7158;SDS011;63175;52.374;13.132;2023-05-07T05:18:48;5.60;;;5.10;;
7158;SDS011;63175;52.374;13.132;2023-05-07T05:21:16;4.90;;;4.50;;
7158;SDS011;63175;52.374;13.132;2023-05-07T05:23:44;6.53;;;5.10;;
7158;SDS011;63175;52.374;13.132;2023-05-07T05:26:11;5.40;;;4.90;;
7158;SDS011;63175;52.374;13.132;2023-05-07T05:28:38;5.17;;;4.83;;
7158;SDS011;63175;52.374;13.132;2023-05-07T05:31:05;5.97;;;4.80;;
7158;SDS011;63175;52.374;13.132;2023-05-07T05:33:32;6.17;;;5.63;;
7158;SDS011;63175;52.374;13.132;2023-05-07T05:35:58;4.60;;;4.27;;
7158;SDS011;63175;52.374;13.132;2023-05-07T05:38:26;5.63;;;4.87;;
7158;SDS011;63175;52.374;13.132;2023-05-07T05:40:54;5.80;;;5.30;;
7158;SDS011;63175;52.374;13.132;2023-05-07T05:43:21;7.70;;;5.50;;
7158;SDS011;63175;52.374;13.132;2023-05-07T05:45:47;6.27;;;4.60;;
7158;SDS011;63175;52.374;13.132;2023-05-07T05:48:14;5.17;;;4.77;;
7158;SDS011;63175;52.374;13.132;2023-05-07T05:50:41;5.70;;;5.20;;
7158;SDS011;63175;52.374;13.132;2023-05-07T05:53:08;5.13;;;4.40;;
7158;SDS011;63175;52.374;13.132;2023-05-07T05:55:35;4.87;;;4.57;;
7158;SDS011;63175;52.374;13.132;2023-05-07T05:58:03;4.53;;;4.13;;
7158;SDS011;63175;52.374;13.132;2023-05-07T06:00:30;5.47;;;4.47;;
7158;SDS011;63175;52.374;13.132;2023-05-07T06:02:57;4.90;;;4.40;;
7158;SDS011;63175;52.374;13.132;2023-05-07T06:05:24;6.60;;;4.90;;
7158;SDS011;63175;52.374;13.132;2023-05-07T06:07:51;7.63;;;6.13;;
7158;SDS011;63175;52.374;13.132;2023-05-07T06:10:18;7.10;;;6.30;;
7158;SDS011;63175;52.374;13.132;2023-05-07T06:12:45;6.27;;;5.67;;
7158;SDS011;63175;52.374;13.132;2023-05-07T06:15:13;4.77;;;4.37;;
7158;SDS011;63175;52.374;13.132;2023-05-07T06:17:40;4.17;;;3.80;;
7158;SDS011;63175;52.374;13.132;2023-05-07T06:20:07;6.27;;;4.13;;
7158;SDS011;63175;52.374;13.132;2023-05-07T06:22:34;4.30;;;3.90;;
7158;SDS011;63175;52.374;13.132;2023-05-07T06:25:01;4.30;;;3.90;;
7158;SDS011;63175;52.374;13.132;2023-05-07T06:27:29;6.07;;;5.47;;
7158;SDS011;63175;52.374;13.132;2023-05-07T06:29:55;7.20;;;5.70;;
7158;SDS011;63175;52.374;13.132;2023-05-07T06:32:24;5.13;;;4.73;;
7158;SDS011;63175;52.374;13.132;2023-05-07T06:34:50;6.13;;;4.43;;
7158;SDS011;63175;52.374;13.132;2023-05-07T06:37:17;5.00;;;4.10;;
7158;SDS011;63175;52.374;13.132;2023-05-07T06:39:44;5.10;;;4.43;;
7158;SDS011;63175;52.374;13.132;2023-05-07T06:42:11;4.23;;;3.87;;
7158;SDS011;63175;52.374;13.132;2023-05-07T06:44:38;5.70;;;3.90;;
7158;SDS011;63175;52.374;13.132;2023-05-07T06:47:04;4.23;;;3.93;;
7158;SDS011;63175;52.374;13.132;2023-05-07T06:49:33;5.70;;;4.37;;
7158;SDS011;63175;52.374;13.132;2023-05-07T06:51:59;4.73;;;4.10;;
7158;SDS011;63175;52.374;13.132;2023-05-07T06:54:26;5.20;;;3.80;;
7158;SDS011;63175;52.374;13.132;2023-05-07T06:56:53;4.07;;;3.77;;
7158;SDS011;63175;52.374;13.132;2023-05-07T06:59:20;5.87;;;3.60;;
7158;SDS011;63175;52.374;13.132;2023-05-07T07:01:47;4.47;;;4.07;;
7158;SDS011;63175;52.374;13.132;2023-05-07T07:04:14;4.00;;;3.60;;
7158;SDS011;63175;52.374;13.132;2023-05-07T07:06:42;3.73;;;3.40;;
7158;SDS011;63175;52.374;13.132;2023-05-07T07:09:09;4.20;;;3.80;;
7158;SDS011;63175;52.374;13.132;2023-05-07T07:11:35;4.20;;;3.47;;
7158;SDS011;63175;52.374;13.132;2023-05-07T07:14:02;3.30;;;3.00;;
7158;SDS011;63175;52.374;13.132;2023-05-07T07:16:30;3.20;;;3.00;;
7158;SDS011;63175;52.374;13.132;2023-05-07T07:18:56;3.97;;;3.60;;
7158;SDS011;63175;52.374;13.132;2023-05-07T07:21:23;4.07;;;3.57;;
7158;SDS011;63175;52.374;13.132;2023-05-07T07:23:52;4.07;;;3.77;;
7158;SDS011;63175;52.374;13.132;2023-05-07T07:26:18;4.20;;;3.80;;
7158;SDS011;63175;52.374;13.132;2023-05-07T07:28:46;4.00;;;3.70;;
7158;SDS011;63175;52.374;13.132;2023-05-07T07:31:13;6.77;;;3.43;;
7158;SDS011;63175;52.374;13.132;2023-05-07T07:33:40;3.93;;;3.63;;
7158;SDS011;63175;52.374;13.132;2023-05-07T07:36:07;3.77;;;3.33;;
7158;SDS011;63175;52.374;13.132;2023-05-07T07:38:34;3.83;;;3.53;;
7158;SDS011;63175;52.374;13.132;2023-05-07T07:41:02;4.67;;;4.20;;
7158;SDS011;63175;52.374;13.132;2023-05-07T07:43:29;5.80;;;4.80;;
7158;SDS011;63175;52.374;13.132;2023-05-07T07:45:56;4.60;;;3.60;;
7158;SDS011;63175;52.374;13.132;2023-05-07T07:48:23;3.80;;;3.50;;
7158;SDS011;63175;52.374;13.132;2023-05-07T07:50:50;6.53;;;3.83;;
7158;SDS011;63175;52.374;13.132;2023-05-07T07:53:17;3.30;;;3.10;;
7158;SDS011;63175;52.374;13.132;2023-05-07T07:55:44;4.60;;;4.17;;
7158;SDS011;63175;52.374;13.132;2023-05-07T07:58:13;3.57;;;3.03;;
7158;SDS011;63175;52.374;13.132;2023-05-07T08:00:39;4.17;;;3.40;;
7158;SDS011;63175;52.374;13.132;2023-05-07T08:03:08;3.30;;;3.10;;
7158;SDS011;63175;52.374;13.132;2023-05-07T08:05:35;3.40;;;3.10;;
7158;SDS011;63175;52.374;13.132;2023-05-07T08:08:03;3.40;;;3.20;;
7158;SDS011;63175;52.374;13.132;2023-05-07T08:10:30;3.40;;;3.10;;
7158;SDS011;63175;52.374;13.132;2023-05-07T08:12:59;3.67;;;3.40;;
7158;SDS011;63175;52.374;13.132;2023-05-07T08:15:30;4.00;;;3.10;;
7158;SDS011;63175;52.374;13.132;2023-05-07T08:17:57;3.90;;;3.60;;
7158;SDS011;63175;52.374;13.132;2023-05-07T08:20:25;2.97;;;2.77;;
7158;SDS011;63175;52.374;13.132;2023-05-07T08:22:52;5.90;;;3.97;;
7158;SDS011;63175;52.374;13.132;2023-05-07T08:25:18;9.83;;;3.07;;
7158;SDS011;63175;52.374;13.132;2023-05-07T08:27:45;3.00;;;2.80;;
7158;SDS011;63175;52.374;13.132;2023-05-07T08:30:13;4.67;;;3.33;;
7158;SDS011;63175;52.374;13.132;2023-05-07T08:32:41;3.30;;;3.00;;
7158;SDS011;63175;52.374;13.132;2023-05-07T08:35:08;3.10;;;2.70;;
7158;SDS011;63175;52.374;13.132;2023-05-07T08:37:35;3.20;;;2.73;;
7158;SDS011;63175;52.374;13.132;2023-05-07T08:40:02;3.37;;;3.10;;
7158;SDS011;63175;52.374;13.132;2023-05-07T08:42:31;3.73;;;3.00;;
7158;SDS011;63175;52.374;13.132;2023-05-07T08:45:01;3.77;;;3.17;;
7158;SDS011;63175;52.374;13.132;2023-05-07T08:47:32;2.57;;;2.47;;
7158;SDS011;63175;52.374;13.132;2023-05-07T08:50:06;2.60;;;2.40;;
7158;SDS011;63175;52.374;13.132;2023-05-07T08:52:34;2.40;;;2.20;;
7158;SDS011;63175;52.374;13.132;2023-05-07T08:55:02;2.40;;;2.20;;
7158;SDS011;63175;52.374;13.132;2023-05-07T08:57:29;2.70;;;2.50;;
7158;SDS011;63175;52.374;13.132;2023-05-07T08:59:56;4.10;;;2.43;;
7158;SDS011;63175;52.374;13.132;2023-05-07T09:02:23;2.43;;;2.23;;
7158;SDS011;63175;52.374;13.132;2023-05-07T09:04:50;2.50;;;2.30;;
7158;SDS011;63175;52.374;13.132;2023-05-07T09:07:19;2.37;;;2.17;;
7158;SDS011;63175;52.374;13.132;2023-05-07T09:09:46;2.17;;;1.97;;
7158;SDS011;63175;52.374;13.132;2023-05-07T09:12:13;2.63;;;2.40;;
7158;SDS011;63175;52.374;13.132;2023-05-07T09:14:40;3.80;;;2.27;;
7158;SDS011;63175;52.374;13.132;2023-05-07T09:17:07;2.90;;;2.70;;
7158;SDS011;63175;52.374;13.132;2023-05-07T09:19:33;2.70;;;2.50;;
7158;SDS011;63175;52.374;13.132;2023-05-07T09:22:01;2.50;;;2.30;;
7158;SDS011;63175;52.374;13.132;2023-05-07T09:24:30;2.50;;;2.30;;
7158;SDS011;63175;52.374;13.132;2023-05-07T09:27:00;2.60;;;2.40;;
7158;SDS011;63175;52.374;13.132;2023-05-07T09:29:27;1.80;;;1.70;;
7158;SDS011;63175;52.374;13.132;2023-05-07T09:31:55;3.40;;;2.60;;
7158;SDS011;63175;52.374;13.132;2023-05-07T09:34:22;1.90;;;1.80;;
7158;SDS011;63175;52.374;13.132;2023-05-07T09:36:48;2.57;;;2.13;;
7158;SDS011;63175;52.374;13.132;2023-05-07T09:39:16;2.53;;;1.87;;
7158;SDS011;63175;52.374;13.132;2023-05-07T09:41:44;2.07;;;1.97;;
7158;SDS011;63175;52.374;13.132;2023-05-07T09:44:12;3.47;;;3.00;;
7158;SDS011;63175;52.374;13.132;2023-05-07T09:46:41;4.70;;;2.50;;
7158;SDS011;63175;52.374;13.132;2023-05-07T09:49:11;3.40;;;2.73;;
7158;SDS011;63175;52.374;13.132;2023-05-07T09:51:47;4.10;;;2.00;;
7158;SDS011;63175;52.374;13.132;2023-05-07T09:54:16;2.00;;;1.90;;
7158;SDS011;63175;52.374;13.132;2023-05-07T09:56:44;1.80;;;1.70;;
7158;SDS011;63175;52.374;13.132;2023-05-07T09:59:12;2.00;;;1.90;;
7158;SDS011;63175;52.374;13.132;2023-05-07T10:01:40;3.53;;;1.57;;
7158;SDS011;63175;52.374;13.132;2023-05-07T10:04:08;2.23;;;1.77;;
7158;SDS011;63175;52.374;13.132;2023-05-07T10:06:36;1.80;;;1.70;;
7158;SDS011;63175;52.374;13.132;2023-05-07T10:09:03;1.87;;;1.77;;
7158;SDS011;63175;52.374;13.132;2023-05-07T10:11:31;1.53;;;1.43;;
7158;SDS011;63175;52.374;13.132;2023-05-07T10:14:00;1.80;;;1.70;;
7158;SDS011;63175;52.374;13.132;2023-05-07T10:16:28;3.90;;;2.00;;
7158;SDS011;63175;52.374;13.132;2023-05-07T10:19:01;2.00;;;1.90;;
7158;SDS011;63175;52.374;13.132;2023-05-07T10:21:28;2.03;;;1.73;;
7158;SDS011;63175;52.374;13.132;2023-05-07T10:23:57;4.80;;;3.77;;
7158;SDS011;63175;52.374;13.132;2023-05-07T10:26:27;3.43;;;3.10;;
7158;SDS011;63175;52.374;13.132;2023-05-07T10:28:56;2.23;;;2.10;;
7158;SDS011;63175;52.374;13.132;2023-05-07T10:31:38;2.03;;;1.93;;
7158;SDS011;63175;52.374;13.132;2023-05-07T10:34:29;2.17;;;1.90;;
7158;SDS011;63175;52.374;13.132;2023-05-07T10:37:01;2.17;;;1.60;;
7158;SDS011;63175;52.374;13.132;2023-05-07T10:39:30;1.43;;;1.27;;
7158;SDS011;63175;52.374;13.132;2023-05-07T10:41:57;1.43;;;1.30;;
7158;SDS011;63175;52.374;13.132;2023-05-07T10:44:34;2.53;;;2.43;;
7158;SDS011;63175;52.374;13.132;2023-05-07T10:47:07;2.70;;;1.60;;
7158;SDS011;63175;52.374;13.132;2023-05-07T10:49:35;1.87;;;1.77;;
7158;SDS011;63175;52.374;13.132;2023-05-07T10:52:12;1.60;;;1.50;;
7158;SDS011;63175;52.374;13.132;2023-05-07T10:54:40;1.70;;;1.60;;
7158;SDS011;63175;52.374;13.132;2023-05-07T11:00:01;3.93;;;1.70;;
7158;SDS011;63175;52.374;13.132;2023-05-07T11:05:34;1.70;;;1.60;;
7158;SDS011;63175;52.374;13.132;2023-05-07T11:08:02;3.00;;;1.93;;
7158;SDS011;63175;52.374;13.132;2023-05-07T11:16:16;1.63;;;1.20;;
7158;SDS011;63175;52.374;13.132;2023-05-07T11:18:48;1.97;;;1.87;;
7158;SDS011;63175;52.374;13.132;2023-05-07T11:24:00;3.00;;;1.20;;
7158;SDS011;63175;52.374;13.132;2023-05-07T11:26:28;2.60;;;1.43;;
7158;SDS011;63175;52.374;13.132;2023-05-07T11:28:56;1.97;;;1.57;;
7158;SDS011;63175;52.374;13.132;2023-05-07T11:31:25;2.63;;;2.43;;
7158;SDS011;63175;52.374;13.132;2023-05-07T11:33:56;2.20;;;2.00;;
7158;SDS011;63175;52.374;13.132;2023-05-07T11:36:23;2.00;;;1.60;;
7158;SDS011;63175;52.374;13.132;2023-05-07T11:38:51;1.90;;;1.70;;
7158;SDS011;63175;52.374;13.132;2023-05-07T11:41:18;8.67;;;1.80;;
7158;SDS011;63175;52.374;13.132;2023-05-07T11:43:57;1.70;;;1.60;;
7158;SDS011;63175;52.374;13.132;2023-05-07T11:46:26;2.00;;;1.90;;
7158;SDS011;63175;52.374;13.132;2023-05-07T11:48:53;1.60;;;1.40;;
7158;SDS011;63175;52.374;13.132;2023-05-07T11:51:22;1.70;;;1.60;;
7158;SDS011;63175;52.374;13.132;2023-05-07T11:53:51;1.77;;;1.67;;
7158;SDS011;63175;52.374;13.132;2023-05-07T11:56:18;3.83;;;1.77;;
7158;SDS011;63175;52.374;13.132;2023-05-07T11:58:46;1.30;;;1.30;;
7158;SDS011;63175;52.374;13.132;2023-05-07T12:01:14;2.00;;;1.57;;
7158;SDS011;63175;52.374;13.132;2023-05-07T12:03:43;1.63;;;1.53;;
7158;SDS011;63175;52.374;13.132;2023-05-07T12:06:13;1.70;;;1.60;;
7158;SDS011;63175;52.374;13.132;2023-05-07T12:08:41;1.83;;;1.73;;
7158;SDS011;63175;52.374;13.132;2023-05-07T12:11:09;2.07;;;1.97;;
7158;SDS011;63175;52.374;13.132;2023-05-07T12:13:39;2.73;;;2.07;;
7158;SDS011;63175;52.374;13.132;2023-05-07T12:16:07;1.80;;;1.70;;
7158;SDS011;63175;52.374;13.132;2023-05-07T12:18:34;1.60;;;1.50;;
7158;SDS011;63175;52.374;13.132;2023-05-07T12:21:03;2.30;;;2.10;;
7158;SDS011;63175;52.374;13.132;2023-05-07T12:23:32;3.00;;;1.97;;
7158;SDS011;63175;52.374;13.132;2023-05-07T12:26:00;2.40;;;1.70;;
7158;SDS011;63175;52.374;13.132;2023-05-07T12:28:28;3.10;;;1.90;;
7158;SDS011;63175;52.374;13.132;2023-05-07T12:30:55;1.43;;;1.33;;
7158;SDS011;63175;52.374;13.132;2023-05-07T12:33:24;2.13;;;1.87;;
7158;SDS011;63175;52.374;13.132;2023-05-07T12:35:54;1.70;;;1.60;;
7158;SDS011;63175;52.374;13.132;2023-05-07T12:38:21;2.60;;;1.60;;
7158;SDS011;63175;52.374;13.132;2023-05-07T12:40:50;1.63;;;1.30;;
7158;SDS011;63175;52.374;13.132;2023-05-07T12:43:21;2.00;;;1.40;;
7158;SDS011;63175;52.374;13.132;2023-05-07T12:45:51;0.80;;;0.80;;
7158;SDS011;63175;52.374;13.132;2023-05-07T12:48:20;2.30;;;1.87;;
7158;SDS011;63175;52.374;13.132;2023-05-07T12:50:49;1.30;;;1.20;;
7158;SDS011;63175;52.374;13.132;2023-05-07T12:53:16;1.90;;;1.80;;
7158;SDS011;63175;52.374;13.132;2023-05-07T12:55:46;2.67;;;2.47;;
7158;SDS011;63175;52.374;13.132;2023-05-07T12:58:15;1.80;;;1.70;;
7158;SDS011;63175;52.374;13.132;2023-05-07T13:00:43;1.60;;;1.20;;
7158;SDS011;63175;52.374;13.132;2023-05-07T13:03:11;1.50;;;1.40;;
7158;SDS011;63175;52.374;13.132;2023-05-07T13:05:38;2.13;;;1.20;;
7158;SDS011;63175;52.374;13.132;2023-05-07T13:08:05;1.47;;;1.33;;
7158;SDS011;63175;52.374;13.132;2023-05-07T13:10:34;1.70;;;1.60;;
7158;SDS011;63175;52.374;13.132;2023-05-07T13:13:01;1.50;;;1.40;;
7158;SDS011;63175;52.374;13.132;2023-05-07T13:15:30;1.60;;;1.50;;
7158;SDS011;63175;52.374;13.132;2023-05-07T13:17:57;1.60;;;1.50;;
7158;SDS011;63175;52.374;13.132;2023-05-07T13:20:24;2.33;;;2.13;;
7158;SDS011;63175;52.374;13.132;2023-05-07T13:22:51;2.50;;;2.30;;
7158;SDS011;63175;52.374;13.132;2023-05-07T13:25:18;5.77;;;1.50;;
7158;SDS011;63175;52.374;13.132;2023-05-07T13:27:45;1.70;;;1.60;;
7158;SDS011;63175;52.374;13.132;2023-05-07T13:30:11;1.40;;;1.23;;
7158;SDS011;63175;52.374;13.132;2023-05-07T13:32:40;1.57;;;1.47;;
7158;SDS011;63175;52.374;13.132;2023-05-07T13:35:07;1.73;;;1.40;;
7158;SDS011;63175;52.374;13.132;2023-05-07T13:37:34;1.57;;;1.47;;
7158;SDS011;63175;52.374;13.132;2023-05-07T13:40:02;3.53;;;1.67;;
7158;SDS011;63175;52.374;13.132;2023-05-07T13:42:29;1.27;;;1.13;;
7158;SDS011;63175;52.374;13.132;2023-05-07T13:44:56;1.63;;;1.50;;
7158;SDS011;63175;52.374;13.132;2023-05-07T13:47:23;1.23;;;1.13;;
7158;SDS011;63175;52.374;13.132;2023-05-07T13:49:52;3.63;;;1.40;;
7158;SDS011;63175;52.374;13.132;2023-05-07T13:52:18;3.27;;;1.40;;
7158;SDS011;63175;52.374;13.132;2023-05-07T13:54:46;1.53;;;1.43;;
7158;SDS011;63175;52.374;13.132;2023-05-07T13:57:13;3.03;;;1.37;;
7158;SDS011;63175;52.374;13.132;2023-05-07T13:59:40;1.37;;;1.27;;
7158;SDS011;63175;52.374;13.132;2023-05-07T14:02:07;1.83;;;1.33;;
7158;SDS011;63175;52.374;13.132;2023-05-07T14:04:34;1.70;;;1.60;;
7158;SDS011;63175;52.374;13.132;2023-05-07T14:07:02;1.33;;;1.23;;
7158;SDS011;63175;52.374;13.132;2023-05-07T14:09:29;1.33;;;1.17;;
7158;SDS011;63175;52.374;13.132;2023-05-07T14:11:56;0.97;;;0.97;;
7158;SDS011;63175;52.374;13.132;2023-05-07T14:14:23;1.50;;;1.40;;
7158;SDS011;63175;52.374;13.132;2023-05-07T14:16:50;0.97;;;0.97;;
7158;SDS011;63175;52.374;13.132;2023-05-07T14:19:16;1.13;;;1.03;;
7158;SDS011;63175;52.374;13.132;2023-05-07T14:21:43;1.03;;;1.00;;
7158;SDS011;63175;52.374;13.132;2023-05-07T14:24:11;1.27;;;1.17;;
7158;SDS011;63175;52.374;13.132;2023-05-07T14:26:38;1.23;;;1.13;;
7158;SDS011;63175;52.374;13.132;2023-05-07T14:29:05;1.00;;;1.00;;
7158;SDS011;63175;52.374;13.132;2023-05-07T14:31:32;1.30;;;1.20;;
7158;SDS011;63175;52.374;13.132;2023-05-07T14:33:59;1.83;;;1.73;;
7158;SDS011;63175;52.374;13.132;2023-05-07T14:36:26;1.70;;;1.60;;
7158;SDS011;63175;52.374;13.132;2023-05-07T14:38:53;1.30;;;1.20;;
7158;SDS011;63175;52.374;13.132;2023-05-07T14:41:21;4.20;;;1.43;;
7158;SDS011;63175;52.374;13.132;2023-05-07T14:43:48;1.30;;;1.20;;
7158;SDS011;63175;52.374;13.132;2023-05-07T14:46:16;1.73;;;1.30;;
7158;SDS011;63175;52.374;13.132;2023-05-07T14:48:43;4.07;;;1.90;;
7158;SDS011;63175;52.374;13.132;2023-05-07T14:51:11;1.70;;;1.60;;
7158;SDS011;63175;52.374;13.132;2023-05-07T14:53:38;1.50;;;1.40;;
7158;SDS011;63175;52.374;13.132;2023-05-07T14:56:05;1.70;;;1.60;;
7158;SDS011;63175;52.374;13.132;2023-05-07T14:58:33;1.87;;;1.40;;
7158;SDS011;63175;52.374;13.132;2023-05-07T15:01:01;1.53;;;1.43;;
7158;SDS011;63175;52.374;13.132;2023-05-07T15:03:28;1.63;;;1.10;;
7158;SDS011;63175;52.374;13.132;2023-05-07T15:05:55;1.30;;;1.13;;
7158;SDS011;63175;52.374;13.132;2023-05-07T15:08:22;1.13;;;1.00;;
7158;SDS011;63175;52.374;13.132;2023-05-07T15:10:48;1.00;;;1.00;;
7158;SDS011;63175;52.374;13.132;2023-05-07T15:13:15;1.30;;;1.10;;
7158;SDS011;63175;52.374;13.132;2023-05-07T15:15:44;1.57;;;1.30;;
7158;SDS011;63175;52.374;13.132;2023-05-07T15:18:11;1.57;;;1.47;;